Česky Dansk Deutsch English Español Suomi Français Magyar Italiano Nederlands norsk Polski Português svenska Türkçe

 

Het Weer

Berlin-Tegel (Duitsland)

13:20, 21 augustus 2016 (GMT)

NWNNE
WE
SWSSE
Home            
Berlin-Tegel Berlin-Tempelhof Berlin-Schoenefeld Wittstock Holzdorf Cottbus Flugplatz Trollenhagen Szczecin Magdeburg, Sachsen-Anhalt Preschen Mecklenburg-Vorpommern, Parchim Leipzig-Schkeuditz Heringsdorf Dresden-Klotzsche Laage Zielona Gora Altenburg Nobitz Braunschweig Fassberg Luebeck-Blankensee Celle Bergen Liberec

Om een weerknop op uw website of weblog te plaatsen, copieer onderstaande code en plak die in uw pagina. In het eerste vakje staat HTML-code, in het tweede vakje UBB-code.


Add to Google

Details

Wind speed:1 bf, 3 kn, 1.5 m/s, 3.5 miles/h, 5.6 km/h
Wind direction:Variable
Visibility:Greater than 10000 m, 10 km, 32800 ft, 6.2 miles
Clouds:Ein wenig bewölkt at 3000 ft, 914 m
Temperature:21°C, 70°F
Dew-point:14°C, 57°F
Atmospheric pressure:1016 hPa, 762.1 mmHg, 30.00 inHg, 1.003 atm
Relative humidity:64.3 %
METAR:EDDT 211320Z VRB03KT 9999 FEW030CB 21/14 Q1016 NOSIG

Snelkoppelingen

Actuele weersinformatie van de hele wereld. Voeg locaties toe met het plus (+) symbool. Deze snelkoppelingen kunnen worden toegevoegd aan Google.

Lid van de Technetium groep

website free tracking
StatCounter NetStat W3C Validator

18-08-2022 10:49:00
astro.technetium.be money.technetium.be phote.technetium.be tafeltennistafel.technetium.be www.ligfiets.net